createdAt,value
2022-09-10T00:04:50.308Z,0.43
2022-09-10T00:09:43.575Z,0.40
2022-09-10T00:14:36.891Z,0.45
2022-09-10T00:19:32.294Z,0.30
2022-09-10T00:24:25.549Z,0.28
2022-09-10T00:29:19.808Z,0.30
2022-09-10T00:34:15.363Z,0.32
2022-09-10T00:39:14.180Z,0.20
2022-09-10T00:44:32.643Z,0.20
2022-09-10T00:49:38.573Z,0.30
2022-09-10T00:54:36.531Z,0.28
2022-09-10T00:59:31.878Z,0.20
2022-09-10T01:04:26.662Z,0.35
2022-09-10T01:09:23.211Z,0.33
2022-09-10T01:15:00.543Z,0.30
2022-09-10T01:20:30.432Z,0.43
2022-09-10T01:25:41.605Z,0.40
2022-09-10T01:30:43.863Z,0.25
2022-09-10T01:35:44.571Z,0.30
2022-09-10T01:40:39.544Z,0.40
2022-09-10T01:45:50.481Z,0.45
2022-09-10T01:50:58.421Z,0.38
2022-09-10T01:56:04.061Z,0.30
2022-09-10T02:01:12.491Z,0.32
2022-09-10T02:06:09.479Z,0.43
2022-09-10T02:11:06.760Z,0.28
2022-09-10T02:16:04.317Z,0.40
2022-09-10T02:21:02.819Z,0.20
2022-09-10T02:25:56.065Z,0.32
2022-09-10T02:30:49.348Z,0.28
2022-09-10T02:35:44.543Z,0.30
2022-09-10T02:40:39.333Z,0.20
2022-09-10T02:45:33.027Z,0.38
2022-09-10T02:50:26.388Z,0.50
2022-09-10T02:55:20.999Z,0.50
2022-09-10T03:00:14.684Z,0.55
2022-09-10T03:05:08.855Z,0.45
2022-09-10T03:10:02.147Z,0.22
2022-09-10T03:14:59.024Z,0.32
2022-09-10T03:20:06.027Z,0.40
2022-09-10T03:25:29.882Z,0.30
2022-09-10T03:30:46.409Z,0.40
2022-09-10T03:35:46.028Z,0.60
2022-09-10T03:40:44.466Z,0.75
2022-09-10T03:45:40.072Z,0.50
2022-09-10T03:50:33.658Z,0.50
2022-09-10T03:55:27.393Z,0.50
2022-09-10T04:00:28.883Z,0.50
2022-09-10T04:05:27.740Z,0.40
2022-09-10T04:10:21.595Z,0.63
2022-09-10T04:15:15.532Z,0.60
2022-09-10T04:20:10.578Z,0.45
2022-09-10T04:25:06.274Z,0.50
2022-09-10T04:29:59.505Z,0.30
2022-09-10T04:34:52.732Z,0.38
2022-09-10T04:39:46.070Z,0.75
2022-09-10T04:44:40.796Z,0.68
2022-09-10T04:49:34.012Z,0.70
2022-09-10T04:54:27.321Z,0.50
2022-09-10T04:59:20.552Z,0.55
2022-09-10T05:04:15.179Z,0.77
2022-09-10T05:09:08.406Z,0.60
2022-09-10T05:14:01.661Z,0.50
2022-09-10T05:18:54.875Z,0.80
2022-09-10T05:23:49.451Z,0.88
2022-09-10T05:28:43.434Z,0.63
2022-09-10T05:33:36.743Z,0.65
2022-09-10T05:38:29.938Z,0.32
2022-09-10T05:43:24.510Z,0.63
2022-09-10T05:48:17.711Z,0.77
2022-09-10T05:53:10.943Z,0.98
2022-09-10T05:58:04.472Z,1.00
2022-09-10T06:03:08.216Z,1.23
2022-09-10T06:08:06.513Z,0.70
2022-09-10T06:13:01.733Z,0.95
2022-09-10T06:17:56.621Z,0.90
2022-09-10T06:22:52.081Z,0.82
2022-09-10T06:27:46.581Z,0.70
2022-09-10T06:32:40.533Z,0.82
2022-09-10T06:37:36.539Z,0.70
2022-09-10T06:42:32.205Z,0.80
2022-09-10T06:52:42.294Z,0.80
2022-09-10T06:57:39.670Z,0.60
2022-09-10T07:02:33.061Z,0.57
2022-09-10T07:07:26.893Z,0.77
2022-09-10T07:12:21.359Z,0.70
2022-09-10T07:17:20.243Z,0.80
2022-09-10T07:22:13.707Z,0.80
2022-09-10T07:27:07.167Z,1.27
2022-09-10T07:32:01.766Z,0.80
2022-09-10T07:36:56.805Z,0.70
2022-09-10T07:41:52.337Z,0.60
2022-09-10T07:46:46.558Z,0.98
2022-09-10T07:51:45.709Z,1.17
2022-09-10T07:56:40.315Z,1.10
2022-09-10T08:01:34.276Z,0.80
2022-09-10T08:06:27.722Z,0.68
2022-09-10T08:11:22.823Z,1.23
2022-09-10T08:16:20.651Z,0.65
2022-09-10T08:21:14.922Z,1.05
2022-09-10T08:26:09.568Z,0.88
2022-09-10T08:31:07.551Z,0.73
2022-09-10T08:36:04.733Z,0.70
2022-09-10T08:41:00.401Z,0.80
2022-09-10T08:45:56.375Z,0.82
2022-09-10T08:50:58.433Z,0.73
2022-09-10T08:55:57.937Z,1.20
2022-09-10T09:00:56.870Z,0.73
2022-09-10T09:05:55.593Z,0.85
2022-09-10T09:10:59.144Z,1.08
2022-09-10T09:16:04.888Z,1.13
2022-09-10T09:21:06.943Z,1.00
2022-09-10T09:26:11.142Z,0.77
2022-09-10T09:31:12.887Z,1.02
2022-09-10T09:36:07.942Z,1.00
2022-09-10T09:41:14.633Z,1.15
2022-09-10T09:46:14.231Z,1.35
2022-09-10T09:51:13.846Z,1.15
2022-09-10T09:56:25.887Z,1.35
2022-09-10T10:01:24.089Z,0.90
2022-09-10T10:06:20.525Z,1.00
2022-09-10T10:11:21.573Z,1.15
2022-09-10T10:16:22.980Z,1.00
2022-09-10T10:21:22.381Z,1.10
2022-09-10T10:26:31.124Z,1.08
2022-09-10T10:31:24.694Z,0.60
2022-09-10T10:36:27.844Z,0.90
2022-09-10T10:41:58.630Z,0.90
2022-09-10T10:47:11.916Z,1.00
2022-09-10T10:52:15.310Z,1.13
2022-09-10T10:57:25.657Z,1.00
2022-09-10T11:02:34.373Z,0.63
2022-09-10T11:07:35.033Z,0.60
2022-09-10T11:12:34.966Z,0.68
2022-09-10T11:17:39.328Z,0.45
2022-09-10T11:22:40.824Z,0.50
2022-09-10T11:27:41.095Z,0.82
2022-09-10T11:32:42.775Z,0.65
2022-09-10T11:37:57.828Z,0.65
2022-09-10T11:42:58.835Z,0.50
2022-09-10T11:48:00.929Z,0.50
2022-09-10T11:52:56.493Z,0.60
2022-09-10T11:58:03.333Z,0.50
2022-09-10T12:03:33.679Z,0.85
2022-09-10T12:08:45.200Z,0.68
2022-09-10T12:13:40.731Z,0.57
2022-09-10T12:18:44.963Z,0.57
2022-09-10T12:23:40.804Z,0.50
2022-09-10T12:29:03.893Z,0.40
2022-09-10T12:34:20.067Z,0.50
2022-09-10T12:39:24.701Z,0.60
2022-09-10T12:44:49.981Z,0.70
2022-09-10T12:49:47.701Z,0.88
2022-09-10T12:54:56.767Z,0.65
2022-09-10T13:00:23.226Z,0.82
2022-09-10T13:05:31.746Z,0.55
2022-09-10T13:10:29.024Z,0.57
2022-09-10T13:15:27.707Z,0.60
2022-09-10T13:20:32.944Z,0.95
2022-09-10T13:25:42.739Z,0.60
2022-09-10T13:30:37.513Z,0.60
2022-09-10T13:36:19.454Z,0.60
2022-09-10T13:42:02.655Z,0.52
2022-09-10T13:47:10.612Z,0.65
2022-09-10T13:52:12.700Z,0.60
2022-09-10T13:57:15.846Z,0.50
2022-09-10T14:02:10.905Z,0.68
2022-09-10T14:07:13.099Z,0.77
2022-09-10T14:12:11.417Z,0.70
2022-09-10T14:17:11.349Z,0.63
2022-09-10T14:22:09.513Z,0.73
2022-09-10T14:27:18.472Z,0.55
2022-09-10T14:32:28.182Z,0.50
2022-09-10T14:37:37.763Z,0.70
2022-09-10T14:42:36.125Z,0.60
2022-09-10T14:47:35.827Z,0.70
2022-09-10T14:52:29.012Z,0.55
2022-09-10T14:57:23.309Z,0.70
2022-09-10T15:02:22.876Z,0.50
2022-09-10T15:07:17.511Z,0.60
2022-09-10T15:12:19.574Z,0.63
2022-09-10T15:17:15.815Z,0.77
2022-09-10T15:22:25.354Z,0.60
2022-09-10T15:27:19.073Z,0.50
2022-09-10T15:32:12.603Z,0.60
2022-09-10T15:37:06.175Z,0.75
2022-09-10T15:42:00.920Z,0.63
2022-09-10T15:46:54.149Z,0.52
2022-09-10T15:51:47.522Z,0.70
2022-09-10T15:56:41.126Z,0.60
2022-09-10T16:01:38.371Z,0.70
2022-09-10T16:06:36.036Z,0.90
2022-09-10T16:11:31.752Z,0.70
2022-09-10T16:16:27.350Z,0.80
2022-09-10T16:21:24.311Z,0.75
2022-09-10T16:26:21.709Z,0.60
2022-09-10T16:31:17.444Z,0.60
2022-09-10T16:36:12.563Z,0.77
2022-09-10T16:41:09.333Z,0.70
2022-09-10T16:46:03.581Z,0.57
2022-09-10T16:51:03.883Z,0.32
2022-09-10T16:56:01.799Z,0.47
2022-09-10T17:00:56.925Z,0.60
2022-09-10T17:05:53.143Z,0.40
2022-09-10T17:10:46.642Z,0.65
2022-09-10T17:15:40.077Z,0.45
2022-09-10T17:20:49.937Z,0.50
2022-09-10T17:26:28.865Z,0.30
2022-09-10T17:31:22.585Z,0.38
2022-09-10T17:36:20.458Z,0.40
2022-09-10T17:41:14.567Z,0.30
2022-09-10T17:51:47.698Z,0.30
2022-09-10T17:56:41.961Z,0.65
2022-09-10T18:01:38.904Z,0.60
2022-09-10T18:06:36.064Z,0.55
2022-09-10T18:11:32.321Z,0.50
2022-09-10T18:16:28.942Z,0.80
2022-09-10T18:21:25.130Z,1.00
2022-09-10T18:26:22.325Z,0.70
2022-09-10T18:31:16.308Z,0.75
2022-09-10T18:36:14.939Z,0.47
2022-09-10T18:41:23.097Z,0.50
2022-09-10T18:46:16.814Z,0.45
2022-09-10T18:51:12.833Z,0.65
2022-09-10T18:56:11.086Z,0.57
2022-09-10T19:01:08.559Z,0.47
2022-09-10T19:06:06.321Z,0.60
2022-09-10T19:10:59.898Z,0.50
2022-09-10T19:15:56.390Z,0.70
2022-09-10T19:20:51.193Z,1.00
2022-09-10T19:25:56.111Z,0.63
2022-09-10T19:30:50.015Z,0.60
2022-09-10T19:35:44.186Z,0.60
2022-09-10T19:40:39.440Z,0.70
2022-09-10T19:45:33.231Z,0.95
2022-09-10T19:50:27.908Z,0.85
2022-09-10T19:55:21.224Z,0.50
2022-09-10T20:00:43.128Z,0.60
2022-09-10T20:05:34.064Z,0.50
2022-09-10T20:10:27.568Z,0.73
2022-09-10T20:15:22.153Z,0.57
2022-09-10T20:20:15.393Z,0.80
2022-09-10T20:25:09.400Z,0.90
2022-09-10T20:30:02.789Z,0.60
2022-09-10T20:34:57.387Z,0.60
2022-09-10T20:39:51.081Z,0.60
2022-09-10T20:44:44.704Z,1.10
2022-09-10T20:49:37.999Z,0.50
2022-09-10T20:54:32.593Z,0.90
2022-09-10T20:59:27.901Z,0.82
2022-09-10T21:04:21.976Z,0.70
2022-09-10T21:09:15.271Z,0.88
2022-09-10T21:14:11.403Z,0.80
2022-09-10T21:19:08.550Z,0.85
2022-09-10T21:24:04.820Z,0.70
2022-09-10T21:29:00.915Z,0.77
2022-09-10T21:34:02.395Z,0.80
2022-09-10T21:38:58.870Z,1.13
2022-09-10T21:43:52.196Z,1.15
2022-09-10T21:48:45.529Z,1.90
2022-09-10T21:53:41.105Z,1.80
2022-09-10T21:58:38.193Z,1.98
2022-09-10T22:03:33.690Z,1.50
2022-09-10T22:08:27.076Z,1.60
2022-09-10T22:13:22.221Z,1.35
2022-09-10T22:18:15.766Z,1.30
2022-09-10T22:23:09.003Z,1.20
2022-09-10T22:28:02.681Z,0.90
2022-09-10T22:32:59.253Z,0.98
2022-09-10T22:37:57.091Z,1.30
2022-09-10T22:42:50.360Z,1.30
2022-09-10T22:47:43.594Z,1.08
2022-09-10T22:52:38.289Z,1.30
2022-09-10T22:57:31.719Z,0.90
2022-09-10T23:02:25.004Z,0.90
2022-09-10T23:07:18.277Z,1.20
2022-09-10T23:12:13.072Z,1.20
2022-09-10T23:17:06.337Z,1.05
2022-09-10T23:21:59.556Z,0.90
2022-09-10T23:26:54.220Z,1.45
2022-09-10T23:31:48.908Z,1.10
2022-09-10T23:36:45.751Z,1.02
2022-09-10T23:41:39.151Z,1.33
2022-09-10T23:46:33.028Z,1.17
2022-09-10T23:51:28.345Z,1.50
2022-09-10T23:56:25.653Z,1.10
